createdAt,value
2023-04-17T00:01:21.052Z,28.13
2023-04-17T00:03:24.079Z,27.98
2023-04-17T00:05:27.924Z,25.00
2023-04-17T00:07:34.337Z,25.85
2023-04-17T00:09:37.062Z,28.15
2023-04-17T00:11:40.185Z,27.85
2023-04-17T00:13:44.017Z,27.55
2023-04-17T00:15:46.698Z,27.40
2023-04-17T00:17:49.483Z,27.70
2023-04-17T00:19:52.318Z,27.38
2023-04-17T00:21:55.048Z,29.17
2023-04-17T00:23:59.453Z,26.85
2023-04-17T00:26:02.626Z,26.80
2023-04-17T00:28:05.915Z,29.30
2023-04-17T00:30:09.841Z,31.52
2023-04-17T00:32:12.549Z,27.55
2023-04-17T00:34:15.244Z,27.58
2023-04-17T00:36:17.972Z,30.75
2023-04-17T00:38:20.690Z,31.20
2023-04-17T00:40:24.658Z,32.20
2023-04-17T00:42:27.505Z,28.42
2023-04-17T00:44:30.702Z,30.70
2023-04-17T00:46:33.709Z,29.02
2023-04-17T00:48:38.431Z,28.65
2023-04-17T00:50:41.647Z,28.08
2023-04-17T00:52:46.057Z,27.38
2023-04-17T00:54:48.702Z,28.70
2023-04-17T00:56:55.178Z,28.75
2023-04-17T00:58:58.742Z,27.60
2023-04-17T01:01:01.466Z,28.02
2023-04-17T01:03:07.328Z,31.95
2023-04-17T01:05:10.671Z,32.15
2023-04-17T01:07:13.366Z,29.17
2023-04-17T01:09:19.009Z,27.25
2023-04-17T01:11:22.095Z,30.42
2023-04-17T01:13:26.340Z,27.50
2023-04-17T01:15:29.379Z,32.55
2023-04-17T01:17:32.195Z,30.35
2023-04-17T01:19:34.989Z,26.27
2023-04-17T01:21:37.692Z,27.75
2023-04-17T01:23:45.417Z,27.70
2023-04-17T01:25:51.184Z,30.60
2023-04-17T01:27:53.965Z,27.35
2023-04-17T01:29:56.575Z,25.75
2023-04-17T01:31:59.190Z,29.23
2023-04-17T01:34:04.923Z,29.08
2023-04-17T01:36:07.993Z,27.42
2023-04-17T01:38:10.633Z,29.65
2023-04-17T01:40:13.884Z,31.45
2023-04-17T01:42:17.921Z,30.10
2023-04-17T01:44:20.706Z,33.97
2023-04-17T01:46:23.462Z,29.83
2023-04-17T01:48:26.125Z,29.75
2023-04-17T01:50:28.786Z,28.25
2023-04-17T01:52:31.623Z,28.52
2023-04-17T01:54:34.294Z,28.85
2023-04-17T01:56:36.890Z,31.85
2023-04-17T01:58:41.010Z,27.50
2023-04-17T02:00:43.708Z,28.27
2023-04-17T02:02:46.485Z,31.17
2023-04-17T02:04:49.260Z,30.80
2023-04-17T02:06:52.253Z,29.73
2023-04-17T02:08:54.918Z,26.83
2023-04-17T02:10:57.602Z,30.15
2023-04-17T02:13:00.290Z,29.75
2023-04-17T02:15:04.346Z,29.88
2023-04-17T02:17:07.186Z,28.98
2023-04-17T02:19:10.065Z,29.13
2023-04-17T02:21:12.959Z,29.70
2023-04-17T02:23:15.690Z,31.10
2023-04-17T02:25:18.481Z,31.00
2023-04-17T02:27:21.262Z,29.80
2023-04-17T02:29:23.896Z,30.30
2023-04-17T02:31:27.936Z,32.17
2023-04-17T02:33:30.673Z,33.08
2023-04-17T02:35:34.115Z,29.90
2023-04-17T02:37:37.181Z,30.77
2023-04-17T02:39:39.798Z,32.15
2023-04-17T02:41:42.512Z,27.83
2023-04-17T02:43:45.230Z,29.25
2023-04-17T02:45:47.973Z,30.70
2023-04-17T02:47:52.064Z,34.42
2023-04-17T02:49:56.174Z,32.13
2023-04-17T02:51:58.976Z,30.85
2023-04-17T02:54:01.669Z,31.80
2023-04-17T02:56:05.098Z,32.88
2023-04-17T02:58:07.795Z,32.63
2023-04-17T03:00:13.938Z,30.02
2023-04-17T03:02:21.814Z,31.63
2023-04-17T03:04:27.631Z,28.98
2023-04-17T03:06:30.239Z,34.22
2023-04-17T03:08:35.457Z,30.05
2023-04-17T03:10:38.101Z,31.88
2023-04-17T03:12:40.810Z,33.35
2023-04-17T03:14:44.700Z,29.98
2023-04-17T03:16:47.371Z,28.70
2023-04-17T03:18:50.041Z,36.38
2023-04-17T03:20:54.143Z,32.58
2023-04-17T03:22:56.832Z,30.58
2023-04-17T03:24:59.481Z,32.20
2023-04-17T03:27:02.949Z,31.98
2023-04-17T03:29:06.043Z,30.63
2023-04-17T03:31:08.710Z,32.42
2023-04-17T03:33:11.423Z,30.70
2023-04-17T03:35:14.269Z,33.58
2023-04-17T03:37:18.315Z,33.33
2023-04-17T03:39:21.476Z,34.40
2023-04-17T03:41:24.291Z,32.53
2023-04-17T03:43:27.074Z,31.10
2023-04-17T03:45:29.690Z,38.45
2023-04-17T03:47:32.403Z,34.60
2023-04-17T03:49:35.055Z,36.15
2023-04-17T03:51:37.728Z,36.05
2023-04-17T03:53:41.852Z,32.95
2023-04-17T03:55:44.571Z,31.92
2023-04-17T03:57:48.521Z,33.97
2023-04-17T03:59:51.313Z,35.97
2023-04-17T04:01:54.413Z,37.58
2023-04-17T04:03:57.341Z,33.45
2023-04-17T04:06:00.061Z,33.85
2023-04-17T04:08:02.745Z,36.42
2023-04-17T04:10:08.036Z,34.13
2023-04-17T04:12:11.345Z,33.75
2023-04-17T04:14:13.918Z,35.83
2023-04-17T04:16:16.754Z,34.85
2023-04-17T04:18:19.568Z,33.45
2023-04-17T04:20:23.046Z,32.03
2023-04-17T04:22:25.750Z,33.17
2023-04-17T04:24:28.605Z,34.45
2023-04-17T04:26:36.348Z,36.40
2023-04-17T04:28:42.590Z,30.80
2023-04-17T04:30:50.749Z,35.03
2023-04-17T04:32:55.908Z,35.90
2023-04-17T04:35:01.946Z,31.77
2023-04-17T04:37:04.768Z,34.58
2023-04-17T04:39:07.411Z,35.83
2023-04-17T04:41:10.573Z,34.08
2023-04-17T04:43:14.572Z,34.08
2023-04-17T04:45:18.661Z,34.28
2023-04-17T04:47:22.736Z,31.90
2023-04-17T04:49:25.660Z,29.52
2023-04-17T04:51:28.333Z,31.90
2023-04-17T04:53:31.529Z,31.95
2023-04-17T04:55:34.317Z,30.50
2023-04-17T04:57:37.342Z,33.35
2023-04-17T04:59:41.310Z,35.33
2023-04-17T05:01:44.689Z,31.55
2023-04-17T05:03:47.999Z,29.23
2023-04-17T05:05:51.377Z,31.90
2023-04-17T05:07:54.965Z,30.05
2023-04-17T05:09:57.675Z,34.97
2023-04-17T05:12:00.386Z,32.50
2023-04-17T05:14:03.004Z,32.53
2023-04-17T05:16:07.564Z,32.45
2023-04-17T05:18:10.433Z,32.08
2023-04-17T05:20:14.944Z,32.75
2023-04-17T05:22:17.563Z,29.77
2023-04-17T05:24:20.414Z,38.35
2023-04-17T05:26:23.367Z,35.05
2023-04-17T05:28:27.281Z,35.92
2023-04-17T05:30:30.293Z,37.90
2023-04-17T05:32:35.055Z,35.15
2023-04-17T05:34:37.813Z,34.95
2023-04-17T05:36:40.494Z,35.33
2023-04-17T05:38:45.942Z,35.38
2023-04-17T05:40:48.895Z,35.10
2023-04-17T05:42:51.773Z,31.20
2023-04-17T05:44:54.454Z,34.08
2023-04-17T05:47:00.052Z,36.50
2023-04-17T05:49:04.092Z,35.35
2023-04-17T05:51:07.002Z,34.55
2023-04-17T05:53:09.779Z,31.33
2023-04-17T05:55:12.486Z,32.60
2023-04-17T05:57:15.255Z,30.60
2023-04-17T05:59:17.949Z,32.83
2023-04-17T06:01:22.354Z,29.85
2023-04-17T06:03:25.858Z,32.13
2023-04-17T06:05:30.357Z,33.00
2023-04-17T06:07:33.848Z,31.95
2023-04-17T06:09:37.346Z,33.22
2023-04-17T06:11:40.104Z,33.30
2023-04-17T06:13:42.920Z,29.95
2023-04-17T06:15:45.813Z,29.90
2023-04-17T06:17:48.486Z,33.42
2023-04-17T06:19:51.151Z,33.20
2023-04-17T06:21:55.228Z,31.10
2023-04-17T06:23:57.882Z,34.72
2023-04-17T06:26:00.574Z,35.28
2023-04-17T06:28:03.756Z,31.95
2023-04-17T06:30:07.684Z,34.45
2023-04-17T06:32:10.667Z,36.15
2023-04-17T06:34:13.365Z,36.25
2023-04-17T06:36:16.294Z,31.73
2023-04-17T06:38:20.318Z,32.45
2023-04-17T06:40:22.990Z,34.33
2023-04-17T06:42:25.926Z,31.70
2023-04-17T06:44:28.674Z,31.15
2023-04-17T06:46:31.440Z,29.35
2023-04-17T06:48:34.147Z,30.33
2023-04-17T06:50:36.836Z,30.88
2023-04-17T06:52:39.524Z,31.85
2023-04-17T06:54:43.676Z,26.92
2023-04-17T06:56:46.384Z,28.02
2023-04-17T06:58:49.087Z,30.63
2023-04-17T07:00:51.753Z,33.55
2023-04-17T07:02:54.532Z,28.70
2023-04-17T07:04:57.470Z,29.58
2023-04-17T07:07:00.533Z,33.58
2023-04-17T07:09:03.381Z,35.08
2023-04-17T07:11:07.548Z,30.27
2023-04-17T07:13:10.246Z,32.55
2023-04-17T07:15:13.195Z,29.55
2023-04-17T07:17:15.952Z,31.65
2023-04-17T07:19:18.566Z,29.77
2023-04-17T07:21:21.174Z,32.90
2023-04-17T07:23:24.148Z,34.35
2023-04-17T07:25:27.050Z,30.90
2023-04-17T07:27:31.087Z,31.05
2023-04-17T07:29:33.986Z,28.27
2023-04-17T07:31:36.962Z,27.95
2023-04-17T07:33:40.597Z,27.67
2023-04-17T07:35:44.541Z,27.45
2023-04-17T07:37:47.213Z,29.65
2023-04-17T07:39:50.370Z,25.95
2023-04-17T07:41:53.048Z,25.95
2023-04-17T07:43:58.955Z,28.38
2023-04-17T07:46:02.011Z,23.40
2023-04-17T07:48:05.202Z,27.85
2023-04-17T07:50:09.056Z,31.90
2023-04-17T07:52:11.720Z,26.85
2023-04-17T07:54:14.430Z,23.98
2023-04-17T07:56:17.493Z,26.88
2023-04-17T07:58:20.303Z,27.50
2023-04-17T08:00:24.648Z,23.73
2023-04-17T08:02:27.575Z,23.85
2023-04-17T08:04:30.900Z,23.98
2023-04-17T08:06:33.776Z,21.67
2023-04-17T08:08:36.429Z,24.23
2023-04-17T08:10:39.129Z,23.92
2023-04-17T08:12:41.805Z,26.88
2023-04-17T08:14:44.618Z,27.20
2023-04-17T08:16:48.720Z,27.20
2023-04-17T08:18:51.492Z,25.17
2023-04-17T08:20:54.215Z,23.95
2023-04-17T08:22:57.322Z,25.08
2023-04-17T08:25:00.026Z,26.60
2023-04-17T08:27:03.507Z,23.15
2023-04-17T08:29:06.217Z,25.25
2023-04-17T08:31:10.393Z,25.75
2023-04-17T08:33:16.883Z,22.30
2023-04-17T08:35:20.228Z,23.50
2023-04-17T08:37:22.959Z,24.73
2023-04-17T08:39:27.159Z,23.67
2023-04-17T08:41:37.484Z,23.77
2023-04-17T08:43:42.314Z,24.13
2023-04-17T08:45:50.102Z,25.38
2023-04-17T08:47:53.010Z,23.77
2023-04-17T08:49:58.607Z,21.77
2023-04-17T08:52:03.085Z,24.38
2023-04-17T08:54:05.938Z,19.67
2023-04-17T08:56:09.343Z,25.10
2023-04-17T08:58:13.281Z,22.10
2023-04-17T09:00:25.393Z,22.50
2023-04-17T09:02:28.384Z,21.77
2023-04-17T09:04:39.316Z,22.35
2023-04-17T09:06:54.316Z,21.08
2023-04-17T09:08:58.927Z,23.40
2023-04-17T09:11:01.613Z,23.60
2023-04-17T09:13:04.869Z,25.58
2023-04-17T09:15:16.930Z,20.83
2023-04-17T09:17:21.341Z,21.15
2023-04-17T09:19:24.011Z,22.58
2023-04-17T09:21:28.955Z,16.48
2023-04-17T09:23:46.917Z,17.67
2023-04-17T09:26:07.454Z,18.33
2023-04-17T09:28:12.745Z,15.40
2023-04-17T09:30:15.701Z,14.80
2023-04-17T09:32:18.461Z,15.02
2023-04-17T09:34:21.889Z,16.60
2023-04-17T09:36:24.773Z,12.98
2023-04-17T09:38:40.040Z,15.50
2023-04-17T09:40:45.248Z,16.85
2023-04-17T09:42:58.697Z,17.33
2023-04-17T09:45:19.139Z,16.98
2023-04-17T09:47:23.597Z,15.50
2023-04-17T09:49:35.372Z,13.20
2023-04-17T09:51:38.734Z,13.40
2023-04-17T09:53:42.847Z,12.13
2023-04-17T09:55:46.052Z,10.82
2023-04-17T09:57:50.522Z,11.50
2023-04-17T09:59:57.396Z,11.48
2023-04-17T10:02:01.920Z,11.63
2023-04-17T10:04:06.825Z,12.43
2023-04-17T10:06:10.143Z,10.70
2023-04-17T10:08:12.872Z,11.77
2023-04-17T10:10:23.760Z,11.73
2023-04-17T10:12:26.701Z,12.80
2023-04-17T10:14:33.296Z,12.00
2023-04-17T10:16:37.068Z,13.10
2023-04-17T10:18:40.472Z,13.23
2023-04-17T10:20:44.956Z,12.90
2023-04-17T10:22:54.542Z,13.98
2023-04-17T10:25:19.785Z,12.88
2023-04-17T10:27:46.375Z,16.65
2023-04-17T10:29:59.306Z,14.25
2023-04-17T10:32:24.369Z,14.32
2023-04-17T10:34:44.845Z,13.27
2023-04-17T10:36:50.801Z,13.15
2023-04-17T10:38:53.426Z,15.55
2023-04-17T10:40:56.164Z,16.00
2023-04-17T10:43:13.399Z,15.68
2023-04-17T10:45:19.959Z,14.38
2023-04-17T10:47:23.160Z,15.70
2023-04-17T10:49:25.993Z,11.55
2023-04-17T10:51:42.687Z,12.68
2023-04-17T10:53:45.941Z,14.23
2023-04-17T10:55:51.365Z,14.40
2023-04-17T10:57:55.978Z,13.73
2023-04-17T11:00:13.719Z,13.85
2023-04-17T11:02:17.318Z,13.40
2023-04-17T11:04:21.808Z,13.90
2023-04-17T11:06:28.786Z,13.63
2023-04-17T11:08:31.618Z,10.63
2023-04-17T11:10:37.104Z,11.20
2023-04-17T11:12:39.826Z,11.55
2023-04-17T11:14:43.218Z,11.57
2023-04-17T11:16:49.036Z,9.75
2023-04-17T11:18:52.260Z,10.18
2023-04-17T11:20:54.964Z,9.27
2023-04-17T11:22:58.190Z,10.15
2023-04-17T11:25:00.994Z,8.43
2023-04-17T11:27:04.744Z,8.65
2023-04-17T11:29:14.970Z,9.00
2023-04-17T11:31:19.853Z,7.78
2023-04-17T11:33:25.199Z,8.45
2023-04-17T11:35:32.644Z,8.27
2023-04-17T11:37:35.431Z,7.28
2023-04-17T11:39:38.226Z,7.10
2023-04-17T11:41:42.517Z,9.27
2023-04-17T11:43:45.393Z,8.68
2023-04-17T11:45:52.576Z,7.03
2023-04-17T11:47:55.292Z,7.72
2023-04-17T11:49:59.480Z,7.95
2023-04-17T11:52:04.052Z,7.63
2023-04-17T11:54:06.799Z,6.65
2023-04-17T11:56:17.122Z,7.00
2023-04-17T11:58:19.739Z,8.77
2023-04-17T12:00:27.444Z,7.20
2023-04-17T12:02:34.416Z,7.38
2023-04-17T12:04:39.424Z,7.10
2023-04-17T12:06:43.871Z,8.18
2023-04-17T12:08:50.136Z,7.10
2023-04-17T12:10:52.881Z,6.72
2023-04-17T12:12:56.537Z,6.40
2023-04-17T12:15:00.970Z,6.78
2023-04-17T12:17:03.624Z,7.32
2023-04-17T12:19:07.979Z,6.78
2023-04-17T12:21:10.796Z,7.22
2023-04-17T12:23:14.791Z,7.25
2023-04-17T12:25:17.437Z,8.45
2023-04-17T12:27:20.085Z,9.73
2023-04-17T12:29:36.243Z,8.77
2023-04-17T12:31:45.976Z,8.68
2023-04-17T12:33:48.635Z,9.85
2023-04-17T12:35:51.415Z,10.13
2023-04-17T12:37:54.065Z,9.07
2023-04-17T12:39:59.612Z,9.70
2023-04-17T12:42:02.244Z,9.15
2023-04-17T12:44:05.106Z,9.50
2023-04-17T12:46:08.080Z,9.25
2023-04-17T12:48:11.016Z,10.27
2023-04-17T12:50:14.112Z,9.10
2023-04-17T12:52:16.810Z,11.68
2023-04-17T12:54:19.824Z,8.88
2023-04-17T12:56:24.126Z,8.80
2023-04-17T12:58:26.885Z,8.90
2023-04-17T13:00:29.605Z,9.73
2023-04-17T13:02:32.664Z,9.52
2023-04-17T13:04:35.762Z,8.88
2023-04-17T13:06:38.667Z,11.30
2023-04-17T13:08:41.383Z,10.82
2023-04-17T13:10:44.206Z,10.30
2023-04-17T13:12:48.500Z,10.55
2023-04-17T13:14:51.306Z,9.52
2023-04-17T13:16:54.087Z,12.07
2023-04-17T13:18:56.820Z,10.30
2023-04-17T13:20:59.593Z,11.25
2023-04-17T13:23:02.449Z,10.23
2023-04-17T13:25:05.888Z,10.68
2023-04-17T13:27:09.811Z,12.50
2023-04-17T13:29:15.620Z,10.48
2023-04-17T13:31:19.990Z,10.00
2023-04-17T13:33:22.661Z,11.95
2023-04-17T13:35:25.350Z,11.00
2023-04-17T13:37:28.145Z,9.40
2023-04-17T13:39:31.025Z,10.80
2023-04-17T13:41:33.726Z,9.05
2023-04-17T13:43:36.369Z,9.65
2023-04-17T13:45:40.460Z,9.98
2023-04-17T13:47:44.624Z,9.05
2023-04-17T13:49:47.389Z,9.38
2023-04-17T13:51:50.238Z,7.15
2023-04-17T13:53:52.921Z,8.45
2023-04-17T13:55:55.652Z,9.85
2023-04-17T13:57:58.594Z,9.88
2023-04-17T14:00:01.275Z,9.60
2023-04-17T14:02:05.562Z,10.52
2023-04-17T14:04:08.513Z,8.85
2023-04-17T14:06:11.464Z,10.70
2023-04-17T14:08:14.252Z,8.50
2023-04-17T14:10:16.875Z,10.45
2023-04-17T14:12:21.670Z,10.23
2023-04-17T14:14:24.545Z,10.38
2023-04-17T14:16:27.614Z,9.20
2023-04-17T14:18:32.324Z,8.25
2023-04-17T14:20:34.967Z,9.02
2023-04-17T14:22:37.758Z,7.50
2023-04-17T14:24:40.472Z,10.07
2023-04-17T14:26:43.174Z,8.80
2023-04-17T14:28:45.842Z,9.38
2023-04-17T14:30:48.535Z,8.82
2023-04-17T14:32:53.366Z,7.85
2023-04-17T14:34:57.524Z,9.95
2023-04-17T14:37:00.190Z,8.52
2023-04-17T14:39:02.933Z,9.25
2023-04-17T14:41:05.842Z,8.88
2023-04-17T14:43:08.611Z,8.38
2023-04-17T14:45:12.535Z,8.05
2023-04-17T14:47:15.355Z,7.13
2023-04-17T14:49:18.046Z,7.78
2023-04-17T14:51:22.325Z,8.93
2023-04-17T14:53:25.045Z,7.22
2023-04-17T14:55:27.980Z,7.68
2023-04-17T14:57:30.709Z,7.38
2023-04-17T14:59:33.560Z,7.95
2023-04-17T15:01:36.548Z,7.18
2023-04-17T15:03:39.650Z,7.25
2023-04-17T15:05:42.547Z,7.40
2023-04-17T15:07:46.541Z,7.63
2023-04-17T15:09:49.238Z,7.75
2023-04-17T15:11:52.032Z,7.72
2023-04-17T15:13:54.775Z,7.82
2023-04-17T15:15:57.498Z,6.97
2023-04-17T15:18:00.327Z,7.70
2023-04-17T15:20:04.101Z,7.15
2023-04-17T15:22:06.774Z,8.07
2023-04-17T15:24:10.925Z,6.78
2023-04-17T15:26:14.082Z,6.60
2023-04-17T15:28:16.769Z,6.97
2023-04-17T15:30:19.502Z,7.60
2023-04-17T15:32:22.242Z,7.07
2023-04-17T15:34:25.053Z,9.38
2023-04-17T15:36:31.272Z,6.13
2023-04-17T15:38:34.038Z,6.82
2023-04-17T15:40:38.132Z,9.18
2023-04-17T15:42:40.877Z,8.27
2023-04-17T15:44:43.486Z,7.80
2023-04-17T15:46:46.361Z,7.78
2023-04-17T15:49:01.233Z,7.22
2023-04-17T15:51:10.684Z,8.25
2023-04-17T15:53:13.463Z,7.03
2023-04-17T15:55:16.536Z,7.05
2023-04-17T15:57:20.549Z,7.82
2023-04-17T15:59:23.314Z,7.32
2023-04-17T16:01:26.443Z,9.40
2023-04-17T16:03:29.404Z,7.63
2023-04-17T16:05:32.225Z,5.72
2023-04-17T16:07:34.827Z,7.78
2023-04-17T16:09:37.534Z,6.10
2023-04-17T16:11:40.204Z,7.30
2023-04-17T16:13:44.256Z,7.93
2023-04-17T16:15:46.927Z,7.22
2023-04-17T16:17:49.681Z,6.57
2023-04-17T16:19:52.411Z,6.43
2023-04-17T16:21:56.636Z,8.40
2023-04-17T16:23:59.433Z,7.78
2023-04-17T16:26:02.053Z,6.50
2023-04-17T16:28:04.736Z,7.78
2023-04-17T16:30:10.690Z,6.55
2023-04-17T16:32:14.258Z,8.73
2023-04-17T16:34:17.217Z,6.95
2023-04-17T16:36:20.016Z,7.82
2023-04-17T16:38:22.673Z,6.93
2023-04-17T16:40:26.559Z,5.65
2023-04-17T16:42:29.159Z,7.32
2023-04-17T16:44:31.840Z,6.90
2023-04-17T16:46:52.109Z,6.35
2023-04-17T16:48:58.845Z,6.78
2023-04-17T16:51:05.797Z,6.35
2023-04-17T16:53:09.335Z,6.88
2023-04-17T16:55:12.077Z,6.68
2023-04-17T16:57:14.760Z,5.80
2023-04-17T16:59:17.561Z,8.55
2023-04-17T17:01:20.261Z,6.53
2023-04-17T17:03:24.420Z,5.60
2023-04-17T17:05:27.122Z,6.57
2023-04-17T17:07:29.802Z,5.70
2023-04-17T17:09:32.576Z,6.25
2023-04-17T17:11:35.297Z,6.43
2023-04-17T17:13:38.005Z,7.00
2023-04-17T17:15:40.679Z,7.95
2023-04-17T17:17:43.459Z,7.25
2023-04-17T17:19:47.559Z,6.90
2023-04-17T17:21:50.808Z,8.77
2023-04-17T17:23:53.468Z,6.20
2023-04-17T17:25:56.089Z,6.72
2023-04-17T17:27:58.998Z,6.40
2023-04-17T17:30:01.691Z,6.05
2023-04-17T17:32:04.888Z,7.78
2023-04-17T17:34:22.646Z,6.63
2023-04-17T17:36:31.313Z,6.78
2023-04-17T17:38:34.012Z,6.00
2023-04-17T17:40:36.744Z,6.20
2023-04-17T17:42:39.349Z,6.72
2023-04-17T17:44:41.978Z,5.93
2023-04-17T17:46:44.768Z,7.45
2023-04-17T17:48:47.630Z,5.35
2023-04-17T17:50:54.225Z,5.80
2023-04-17T17:52:59.007Z,5.50
2023-04-17T17:55:01.984Z,5.78
2023-04-17T17:57:05.330Z,6.47
2023-04-17T17:59:08.062Z,6.28
2023-04-17T18:01:11.050Z,5.85
2023-04-17T18:03:15.735Z,5.07
2023-04-17T18:05:19.023Z,4.80
2023-04-17T18:07:21.740Z,5.60
2023-04-17T18:09:25.822Z,4.93
2023-04-17T18:11:28.645Z,7.00
2023-04-17T18:13:31.288Z,5.10
2023-04-17T18:15:34.055Z,5.35
2023-04-17T18:17:36.824Z,4.78
2023-04-17T18:19:41.620Z,5.05
2023-04-17T18:21:47.245Z,4.22
2023-04-17T18:23:50.353Z,4.72
2023-04-17T18:26:02.088Z,5.10
2023-04-17T18:28:04.859Z,5.93
2023-04-17T18:30:09.735Z,5.47
2023-04-17T18:32:12.476Z,4.43
2023-04-17T18:34:15.379Z,4.57
2023-04-17T18:36:18.204Z,4.28
2023-04-17T18:38:20.853Z,4.55
2023-04-17T18:40:23.502Z,5.03
2023-04-17T18:42:27.432Z,5.28
2023-04-17T18:44:30.060Z,5.13
2023-04-17T18:46:32.763Z,4.80
2023-04-17T18:48:35.529Z,5.07
2023-04-17T18:50:38.393Z,4.78
2023-04-17T18:52:44.043Z,4.32
2023-04-17T18:54:49.584Z,5.05
2023-04-17T18:56:52.228Z,4.65
2023-04-17T18:58:56.218Z,5.50
2023-04-17T19:00:59.016Z,4.90
2023-04-17T19:03:01.799Z,4.53
2023-04-17T19:05:05.697Z,5.82
2023-04-17T19:07:08.414Z,5.13
2023-04-17T19:09:11.549Z,4.20
2023-04-17T19:11:14.248Z,4.57
2023-04-17T19:13:16.908Z,4.78
2023-04-17T19:15:21.381Z,3.80
2023-04-17T19:17:25.249Z,4.15
2023-04-17T19:19:28.057Z,4.32
2023-04-17T19:21:31.711Z,4.25
2023-04-17T19:23:34.422Z,4.30
2023-04-17T19:25:38.394Z,4.60
2023-04-17T19:27:41.037Z,5.13
2023-04-17T19:29:43.822Z,5.82
2023-04-17T19:31:47.913Z,6.15
2023-04-17T19:33:50.564Z,4.97
2023-04-17T19:35:53.330Z,4.53
2023-04-17T19:37:55.978Z,5.57
2023-04-17T19:39:58.683Z,5.82
2023-04-17T19:42:02.253Z,5.28
2023-04-17T19:44:05.124Z,4.97
2023-04-17T19:46:08.652Z,5.75
2023-04-17T19:48:12.832Z,5.70
2023-04-17T19:50:15.673Z,5.35
2023-04-17T19:52:18.479Z,6.20
2023-04-17T19:54:21.196Z,4.72
2023-04-17T19:56:24.112Z,5.55
2023-04-17T19:58:26.885Z,6.00
2023-04-17T20:00:29.548Z,5.88
2023-04-17T20:02:32.464Z,5.88
2023-04-17T20:04:36.587Z,6.93
2023-04-17T20:06:39.578Z,7.20
2023-04-17T20:08:42.316Z,6.03
2023-04-17T20:10:44.972Z,6.68
2023-04-17T20:12:47.653Z,7.35
2023-04-17T20:14:52.530Z,9.27
2023-04-17T20:16:56.182Z,7.72
2023-04-17T20:18:58.884Z,8.05
2023-04-17T20:21:02.962Z,9.85
2023-04-17T20:23:06.097Z,7.13
2023-04-17T20:25:09.698Z,7.20
2023-04-17T20:27:12.319Z,8.80
2023-04-17T20:29:15.209Z,7.30
2023-04-17T20:31:18.278Z,7.03
2023-04-17T20:33:20.936Z,6.50
2023-04-17T20:35:24.694Z,8.25
2023-04-17T20:37:28.822Z,7.88
2023-04-17T20:39:32.052Z,8.10
2023-04-17T20:41:34.802Z,8.52
2023-04-17T20:43:37.512Z,7.90
2023-04-17T20:45:40.498Z,10.60
2023-04-17T20:47:55.975Z,8.55
2023-04-17T20:49:59.713Z,8.50
2023-04-17T20:52:02.983Z,9.88
2023-04-17T20:54:07.094Z,11.30
2023-04-17T20:56:09.809Z,8.57
2023-04-17T20:58:12.488Z,10.13
2023-04-17T21:00:15.824Z,9.93
2023-04-17T21:02:18.711Z,9.57
2023-04-17T21:04:21.865Z,11.18
2023-04-17T21:06:24.587Z,12.48
2023-04-17T21:08:27.464Z,9.95
2023-04-17T21:10:31.497Z,10.68
2023-04-17T21:12:35.191Z,12.07
2023-04-17T21:14:38.068Z,11.35
2023-04-17T21:16:41.631Z,10.35
2023-04-17T21:18:44.307Z,12.23
2023-04-17T21:20:46.974Z,12.57
2023-04-17T21:22:49.778Z,13.20
2023-04-17T21:24:52.410Z,12.55
2023-04-17T21:26:58.594Z,11.20
2023-04-17T21:29:01.222Z,11.82
2023-04-17T21:31:08.345Z,13.60
2023-04-17T21:33:11.136Z,13.18
2023-04-17T21:35:13.758Z,15.02
2023-04-17T21:37:16.344Z,15.63
2023-04-17T21:39:19.125Z,14.98
2023-04-17T21:41:22.023Z,14.93
2023-04-17T21:43:26.046Z,14.73
2023-04-17T21:45:28.774Z,15.95
2023-04-17T21:47:31.421Z,14.48
2023-04-17T21:49:34.172Z,14.48
2023-04-17T21:51:36.802Z,15.43
2023-04-17T21:53:39.510Z,13.40
2023-04-17T21:55:42.347Z,14.95
2023-04-17T21:57:45.934Z,17.52
2023-04-17T21:59:49.937Z,17.83
2023-04-17T22:01:52.596Z,20.13
2023-04-17T22:03:55.583Z,16.88
2023-04-17T22:05:58.737Z,18.77
2023-04-17T22:08:02.171Z,15.27
2023-04-17T22:10:05.422Z,18.45
2023-04-17T22:12:12.409Z,17.80
2023-04-17T22:14:16.898Z,15.25
2023-04-17T22:16:21.049Z,17.55
2023-04-17T22:18:23.745Z,17.42
2023-04-17T22:20:26.623Z,16.63
2023-04-17T22:22:29.252Z,19.85
2023-04-17T22:24:31.849Z,20.17
2023-04-17T22:26:34.588Z,18.88
2023-04-17T22:28:37.378Z,17.92
2023-04-17T22:30:40.076Z,22.20
2023-04-17T22:32:44.282Z,17.92
2023-04-17T22:34:48.643Z,21.08
2023-04-17T22:36:51.389Z,18.52
2023-04-17T22:38:54.184Z,18.52
2023-04-17T22:40:56.823Z,20.77
2023-04-17T22:42:59.485Z,17.20
2023-04-17T22:45:02.275Z,19.30
2023-04-17T22:47:05.070Z,20.02
2023-04-17T22:49:09.626Z,23.13
2023-04-17T22:51:12.531Z,19.83
2023-04-17T22:53:15.223Z,21.10
2023-04-17T22:55:18.094Z,18.60
2023-04-17T22:57:20.993Z,21.75
2023-04-17T22:59:23.880Z,21.58
2023-04-17T23:01:26.760Z,20.52
2023-04-17T23:03:29.924Z,19.65
2023-04-17T23:05:34.049Z,18.25
2023-04-17T23:07:37.040Z,20.88
2023-04-17T23:09:39.678Z,19.33
2023-04-17T23:11:42.474Z,20.90
2023-04-17T23:13:45.401Z,20.52
2023-04-17T23:15:48.236Z,19.13
2023-04-17T23:17:50.990Z,20.42
2023-04-17T23:19:54.405Z,22.25
2023-04-17T23:21:59.466Z,23.40
2023-04-17T23:24:02.488Z,19.08
2023-04-17T23:26:05.288Z,20.45
2023-04-17T23:28:07.950Z,18.75
2023-04-17T23:30:11.464Z,18.63
2023-04-17T23:32:14.143Z,19.50
2023-04-17T23:34:16.882Z,21.38
2023-04-17T23:36:19.630Z,22.08
2023-04-17T23:38:23.676Z,21.02
2023-04-17T23:40:28.045Z,19.73
2023-04-17T23:42:30.822Z,21.13
2023-04-17T23:44:33.536Z,18.42
2023-04-17T23:46:36.344Z,21.67
2023-04-17T23:48:39.113Z,18.40
2023-04-17T23:50:42.942Z,21.75
2023-04-17T23:52:46.194Z,20.55
2023-04-17T23:54:50.181Z,20.55
2023-04-17T23:56:53.537Z,19.98
2023-04-17T23:58:56.308Z,16.77
